Time;durP1;ratioP1;P1;durP2;ratioP2;P2;SDS_P1;SDS_P2;PMS_P1;PMS_P2;Temp;Humidity;BMP_temperature;BMP_pressure;BME280_temperature;BME280_humidity;BME280_pressure;Samples;Min_cycle;Max_cycle;Signal;HPM_P1;HPM_P2
2023/09/29 00:00:19;;;;;;;6.00;3.88;;;19.70;90.80;;;;;;5074234;28;20051;-80
2023/09/29 00:02:47;;;;;;;5.72;3.63;;;19.70;90.80;;;;;;5074293;28;20480;-80
2023/09/29 00:05:17;;;;;;;5.45;3.65;;;19.70;90.80;;;;;;5075241;28;20032;-78
2023/09/29 00:07:42;;;;;;;5.13;3.53;;;19.70;90.80;;;;;;5074405;28;20024;-79
2023/09/29 00:10:09;;;;;;;6.00;3.78;;;19.70;90.80;;;;;;5073892;28;20020;-79
2023/09/29 00:12:36;;;;;;;5.13;3.45;;;19.70;90.90;;;;;;5075317;28;20713;-79
2023/09/29 00:15:04;;;;;;;5.82;3.72;;;19.80;90.90;;;;;;5074210;28;20028;-80
2023/09/29 00:17:31;;;;;;;5.68;3.30;;;19.80;90.80;;;;;;5074249;28;20130;-79
2023/09/29 00:19:57;;;;;;;5.07;3.33;;;19.80;90.80;;;;;;5074138;28;20039;-79
2023/09/29 00:22:22;;;;;;;6.18;4.00;;;19.80;90.80;;;;;;5073604;28;20025;-80
2023/09/29 00:24:48;;;;;;;5.50;3.50;;;19.80;90.70;;;;;;5073218;28;20017;-78
2023/09/29 00:27:13;;;;;;;5.20;3.47;;;19.80;90.70;;;;;;5073066;28;20025;-80
2023/09/29 00:29:39;;;;;;;5.80;3.55;;;19.80;90.70;;;;;;5072822;28;20027;-78
2023/09/29 00:32:05;;;;;;;5.43;3.70;;;19.80;90.70;;;;;;5074339;28;20430;-79
2023/09/29 00:34:31;;;;;;;5.60;3.38;;;19.80;90.70;;;;;;5073021;28;20119;-80
2023/09/29 00:36:57;;;;;;;5.13;3.40;;;19.80;90.70;;;;;;5072803;28;20024;-80
2023/09/29 00:39:22;;;;;;;5.80;3.90;;;19.80;90.70;;;;;;5072465;28;20578;-81
2023/09/29 00:41:49;;;;;;;5.63;3.38;;;19.80;90.80;;;;;;5072805;28;20016;-80
2023/09/29 00:44:15;;;;;;;5.40;3.60;;;19.80;90.70;;;;;;5074105;28;20023;-81
2023/09/29 00:46:42;;;;;;;5.20;3.67;;;19.70;90.70;;;;;;5072833;28;20477;-80
2023/09/29 00:49:08;;;;;;;5.68;3.78;;;19.70;90.80;;;;;;5072104;28;20040;-79
2023/09/29 00:51:35;;;;;;;6.65;4.00;;;19.70;90.80;;;;;;5072714;28;20028;-80
2023/09/29 00:54:08;;;;;;;5.57;3.70;;;19.70;90.80;;;;;;5072737;28;20120;-80
2023/09/29 00:56:35;;;;;;;5.15;3.70;;;19.70;90.80;;;;;;5072585;28;20031;-80
2023/09/29 00:59:05;;;;;;;6.10;3.88;;;19.70;90.80;;;;;;5072152;28;20035;-79
2023/09/29 01:01:30;;;;;;;5.63;3.60;;;19.70;90.80;;;;;;5072430;28;20025;-80
2023/09/29 01:03:56;;;;;;;5.80;4.07;;;19.70;90.90;;;;;;5073572;28;20024;-80
2023/09/29 01:06:22;;;;;;;5.78;4.13;;;19.70;90.90;;;;;;5072374;28;20017;-79
2023/09/29 01:08:47;;;;;;;5.47;3.75;;;19.70;90.90;;;;;;5072363;28;20396;-80
2023/09/29 01:11:13;;;;;;;6.55;3.95;;;19.70;90.90;;;;;;5072544;28;20481;-80
2023/09/29 01:13:40;;;;;;;7.03;4.10;;;19.80;90.90;;;;;;5073419;28;20024;-80
2023/09/29 01:16:09;;;;;;;6.30;3.85;;;19.80;90.80;;;;;;5072236;28;20032;-81
2023/09/29 01:18:36;;;;;;;6.05;4.15;;;19.80;90.80;;;;;;5071678;28;20091;-79
2023/09/29 01:21:05;;;;;;;5.80;3.65;;;19.80;90.80;;;;;;5071957;28;20043;-80
2023/09/29 01:23:33;;;;;;;5.78;3.72;;;19.70;90.70;;;;;;5071980;28;20035;-81
2023/09/29 01:25:59;;;;;;;5.70;3.85;;;19.70;90.70;;;;;;5072035;28;20020;-79
2023/09/29 01:28:25;;;;;;;5.03;3.38;;;19.80;90.70;;;;;;5071382;28;20396;-80
2023/09/29 01:30:53;;;;;;;5.13;3.50;;;19.80;90.70;;;;;;5071707;28;20028;-80
2023/09/29 01:33:21;;;;;;;5.70;3.67;;;19.80;90.70;;;;;;5071864;28;20028;-80
2023/09/29 01:35:48;;;;;;;5.82;3.40;;;19.80;90.70;;;;;;5071888;28;20095;-82
2023/09/29 01:38:14;;;;;;;5.20;3.53;;;19.80;90.80;;;;;;5071834;28;20029;-80
2023/09/29 01:40:40;;;;;;;5.30;3.65;;;19.70;90.80;;;;;;5071763;28;20024;-80
2023/09/29 01:43:06;;;;;;;5.65;3.80;;;19.70;90.80;;;;;;5071708;28;20045;-81
2023/09/29 01:45:32;;;;;;;5.00;3.72;;;19.70;90.80;;;;;;5072074;28;20052;-80
2023/09/29 01:47:58;;;;;;;5.25;3.42;;;19.70;90.80;;;;;;5071280;28;20154;-80
2023/09/29 01:50:24;;;;;;;5.50;3.70;;;19.70;90.80;;;;;;5071614;28;20548;-79
2023/09/29 01:52:50;;;;;;;5.40;3.80;;;19.70;90.80;;;;;;5071792;28;20183;-79
2023/09/29 01:55:19;;;;;;;5.75;3.60;;;19.70;90.80;;;;;;5071657;28;20504;-79
2023/09/29 01:57:47;;;;;;;6.10;3.70;;;19.70;90.90;;;;;;5071431;28;20028;-81
2023/09/29 02:00:23;;;;;;;5.30;3.50;;;19.70;90.90;;;;;;5072523;28;20021;-81
2023/09/29 02:02:51;;;;;;;5.65;3.58;;;19.70;90.90;;;;;;5071581;28;20497;-78
2023/09/29 02:05:17;;;;;;;5.75;3.40;;;19.70;90.90;;;;;;5071332;28;20069;-79
2023/09/29 02:07:43;;;;;;;6.05;3.90;;;19.70;90.90;;;;;;5071169;28;20028;-80
2023/09/29 02:10:09;;;;;;;5.47;3.63;;;19.70;90.90;;;;;;5071343;28;20064;-80
2023/09/29 02:12:46;;;;;;;5.13;3.70;;;19.70;90.90;;;;;;5072656;28;20490;-81
2023/09/29 02:15:14;;;;;;;5.05;3.63;;;19.70;90.80;;;;;;5071483;28;20024;-80
2023/09/29 02:17:40;;;;;;;4.95;3.38;;;19.70;90.80;;;;;;5071375;28;20032;-80
2023/09/29 02:20:12;;;;;;;5.70;3.40;;;19.80;90.80;;;;;;5072096;28;20046;-80
2023/09/29 02:22:37;;;;;;;5.55;3.63;;;19.80;90.80;;;;;;5072763;28;20020;-80
2023/09/29 02:25:03;;;;;;;5.55;3.33;;;19.80;90.70;;;;;;5071357;28;20032;-79
2023/09/29 02:27:29;;;;;;;5.32;3.45;;;19.80;90.80;;;;;;5071290;28;20111;-79
2023/09/29 02:29:54;;;;;;;5.38;3.40;;;19.80;90.80;;;;;;5071104;28;20044;-80
2023/09/29 02:32:21;;;;;;;5.70;3.83;;;19.80;90.80;;;;;;5071052;28;20017;-80
2023/09/29 02:34:47;;;;;;;5.15;3.47;;;19.70;90.80;;;;;;5069739;28;20025;-79
2023/09/29 02:37:13;;;;;;;6.05;3.70;;;19.70;90.80;;;;;;5071100;28;20027;-80
2023/09/29 02:39:38;;;;;;;6.53;3.65;;;19.70;90.80;;;;;;5072075;28;20488;-80
2023/09/29 02:42:04;;;;;;;5.45;3.50;;;19.70;90.80;;;;;;5074320;28;20021;-80
2023/09/29 02:44:33;;;;;;;5.20;3.55;;;19.70;90.90;;;;;;5076426;28;20067;-80
2023/09/29 02:46:58;;;;;;;5.20;3.42;;;19.70;90.90;;;;;;5075050;28;20012;-79
2023/09/29 02:49:27;;;;;;;6.22;3.60;;;19.70;90.90;;;;;;5075458;28;20381;-80
2023/09/29 02:51:53;;;;;;;5.28;3.40;;;19.70;90.90;;;;;;5074988;28;20039;-79
2023/09/29 02:54:19;;;;;;;5.05;3.40;;;19.70;90.90;;;;;;5075357;28;20206;-80
2023/09/29 02:56:45;;;;;;;6.85;3.75;;;19.70;90.90;;;;;;5076090;28;20107;-80
2023/09/29 02:59:12;;;;;;;4.57;3.20;;;19.70;90.90;;;;;;5075825;28;20024;-79
2023/09/29 03:01:37;;;;;;;5.82;3.67;;;19.70;91.00;;;;;;5074873;28;20508;-80
2023/09/29 03:04:06;;;;;;;5.40;3.40;;;19.70;91.00;;;;;;5074730;28;20016;-80
2023/09/29 03:06:32;;;;;;;4.45;3.13;;;19.70;91.00;;;;;;5074742;28;20024;-80
2023/09/29 03:08:59;;;;;;;5.18;3.25;;;19.70;91.00;;;;;;5075667;28;20028;-80
2023/09/29 03:11:25;;;;;;;5.78;3.63;;;19.70;90.90;;;;;;5074563;28;20039;-80
2023/09/29 03:13:54;;;;;;;4.85;3.20;;;19.70;90.90;;;;;;5074642;28;20569;-79
2023/09/29 03:16:25;;;;;;;5.13;3.55;;;19.70;90.80;;;;;;5074376;28;20487;-80
2023/09/29 03:18:51;;;;;;;;;;;19.70;90.80;;;;;;5075670;28;20039;-79
2023/09/29 03:21:17;;;;;;;4.82;3.20;;;19.80;90.80;;;;;;5074368;28;19908;-79
2023/09/29 03:23:43;;;;;;;5.07;3.47;;;19.70;90.80;;;;;;5074337;28;20085;-80
2023/09/29 03:26:09;;;;;;;4.75;3.13;;;19.80;90.80;;;;;;5075652;28;20020;-80
2023/09/29 03:28:35;;;;;;;4.78;3.13;;;19.70;90.80;;;;;;5074078;28;20016;-79
2023/09/29 03:31:05;;;;;;;4.68;3.00;;;19.70;90.80;;;;;;5074043;28;20189;-80
2023/09/29 03:33:32;;;;;;;5.83;3.37;;;19.70;90.80;;;;;;5074198;28;20029;-80
2023/09/29 03:35:58;;;;;;;5.18;3.30;;;19.70;90.90;;;;;;5074225;28;20350;-80
2023/09/29 03:38:25;;;;;;;5.93;3.90;;;19.70;90.90;;;;;;5074097;28;20190;-80
2023/09/29 03:40:52;;;;;;;5.20;3.08;;;19.70;90.90;;;;;;5073787;28;20025;-82
2023/09/29 03:43:23;;;;;;;5.28;3.22;;;19.70;90.90;;;;;;5073983;28;20400;-80
2023/09/29 03:45:53;;;;;;;5.15;3.30;;;19.70;90.90;;;;;;5073956;28;20066;-80
2023/09/29 03:48:19;;;;;;;6.13;3.13;;;19.70;90.90;;;;;;5073637;28;20043;-81
2023/09/29 03:50:49;;;;;;;5.43;3.38;;;19.70;91.00;;;;;;5073376;28;20028;-80
2023/09/29 03:53:16;;;;;;;5.18;3.30;;;19.70;91.00;;;;;;5073405;28;20043;-79
2023/09/29 03:55:42;;;;;;;4.50;3.15;;;19.70;91.00;;;;;;5073715;28;20028;-79
2023/09/29 03:58:08;;;;;;;5.00;3.22;;;19.70;91.00;;;;;;5073770;28;20135;-80
2023/09/29 04:00:33;;;;;;;4.78;3.40;;;19.60;91.00;;;;;;5074558;28;20033;-80
2023/09/29 04:02:59;;;;;;;4.85;3.10;;;19.70;91.00;;;;;;5073731;28;20021;-80
2023/09/29 04:05:25;;;;;;;5.05;3.13;;;19.70;91.00;;;;;;5073871;28;20112;-81
2023/09/29 04:07:50;;;;;;;5.20;3.50;;;19.70;91.00;;;;;;5073525;28;20124;-79
2023/09/29 04:10:16;;;;;;;4.82;3.20;;;19.70;91.00;;;;;;5073291;28;20024;-79
2023/09/29 04:12:44;;;;;;;4.50;3.10;;;19.70;90.90;;;;;;5074958;28;20519;-80
2023/09/29 04:15:10;;;;;;;4.80;3.17;;;19.70;90.90;;;;;;5073457;28;20048;-80
2023/09/29 04:17:36;;;;;;;5.65;3.25;;;19.70;90.90;;;;;;5074575;28;20389;-80
2023/09/29 04:20:02;;;;;;;4.85;3.00;;;19.70;90.80;;;;;;5072879;28;20029;-80
2023/09/29 04:22:28;;;;;;;4.70;3.17;;;19.70;90.80;;;;;;5073272;28;20392;-80
2023/09/29 04:24:53;;;;;;;4.65;2.90;;;19.70;90.80;;;;;;5073381;28;20129;-80
2023/09/29 04:27:19;;;;;;;4.28;2.80;;;19.70;90.80;;;;;;5073149;28;20435;-80
2023/09/29 04:29:44;;;;;;;4.10;2.85;;;19.70;90.90;;;;;;5072902;28;20031;-80
2023/09/29 04:32:10;;;;;;;4.53;2.75;;;19.70;90.90;;;;;;5073057;28;20056;-80
2023/09/29 04:34:35;;;;;;;4.72;3.10;;;19.70;90.90;;;;;;5072381;28;20028;-80
2023/09/29 04:37:01;;;;;;;4.22;2.80;;;19.70;90.90;;;;;;5072860;28;20031;-80
2023/09/29 04:39:27;;;;;;;4.60;2.83;;;19.70;90.90;;;;;;5073795;28;20104;-80
2023/09/29 04:41:52;;;;;;;5.28;3.25;;;19.60;90.90;;;;;;5072881;28;20392;-80
2023/09/29 04:44:18;;;;;;;4.30;3.00;;;19.70;91.00;;;;;;5072720;28;20481;-80
2023/09/29 04:46:44;;;;;;;4.50;3.00;;;19.70;91.00;;;;;;5071840;28;20060;-78
2023/09/29 04:49:10;;;;;;;4.95;3.13;;;19.60;91.00;;;;;;5073056;28;20024;-79
2023/09/29 04:51:38;;;;;;;4.45;2.90;;;19.60;91.00;;;;;;5074027;28;20024;-80
2023/09/29 04:54:04;;;;;;;4.72;2.90;;;19.60;91.00;;;;;;5072644;28;20028;-81
2023/09/29 04:56:31;;;;;;;4.55;3.08;;;19.70;91.10;;;;;;5072581;28;20028;-80
2023/09/29 04:58:56;;;;;;;4.88;3.28;;;19.60;91.00;;;;;;5072266;28;20033;-80
2023/09/29 05:01:24;;;;;;;4.63;3.00;;;19.60;91.00;;;;;;5070135;28;20024;-80
2023/09/29 05:03:50;;;;;;;4.93;3.15;;;19.70;91.10;;;;;;5068589;28;20024;-78
2023/09/29 05:06:16;;;;;;;5.05;3.17;;;19.60;91.00;;;;;;5068708;28;21400;-80
2023/09/29 05:08:43;;;;;;;5.00;3.15;;;19.70;91.00;;;;;;5070483;28;20020;-80
2023/09/29 05:11:08;;;;;;;5.10;3.30;;;19.70;90.90;;;;;;5070468;28;20051;-81
2023/09/29 05:13:34;;;;;;;4.45;2.88;;;19.80;90.90;;;;;;5070003;28;20025;-79
2023/09/29 05:16:00;;;;;;;4.90;3.00;;;19.70;90.90;;;;;;5069532;28;20024;-81
2023/09/29 05:18:25;;;;;;;4.15;2.80;;;19.70;90.90;;;;;;5063772;28;20021;-80
2023/09/29 05:20:51;;;;;;;4.85;3.00;;;19.70;90.90;;;;;;5070130;28;20476;-80
2023/09/29 05:23:17;;;;;;;4.32;2.75;;;19.70;90.90;;;;;;5072443;28;20025;-80
2023/09/29 05:25:47;;;;;;;3.53;2.55;;;19.70;90.90;;;;;;5070787;28;20074;-81
2023/09/29 05:28:15;;;;;;;4.38;2.75;;;19.70;90.90;;;;;;5070235;28;20107;-82
2023/09/29 05:30:53;;;;;;;4.50;2.83;;;19.70;90.90;;;;;;5070390;28;20021;-79
2023/09/29 05:33:19;;;;;;;4.75;2.92;;;19.70;90.90;;;;;;5069730;28;20025;-78
2023/09/29 05:35:46;;;;;;;4.45;2.85;;;19.80;91.00;;;;;;5070890;28;20075;-80
2023/09/29 05:38:11;;;;;;;4.22;2.80;;;19.70;91.00;;;;;;5089350;28;20040;-78
2023/09/29 05:40:38;;;;;;;4.43;2.97;;;19.70;91.00;;;;;;5090512;28;20549;-81
2023/09/29 05:43:04;;;;;;;4.60;2.70;;;19.70;91.00;;;;;;5089297;28;20054;-78
2023/09/29 05:45:30;;;;;;;4.55;2.90;;;19.60;91.00;;;;;;5089880;28;20133;-79
2023/09/29 05:47:56;;;;;;;4.25;2.90;;;19.60;91.00;;;;;;5089303;28;20032;-79
2023/09/29 05:50:22;;;;;;;4.45;2.83;;;19.60;91.00;;;;;;5090235;28;20024;-79
2023/09/29 05:52:48;;;;;;;4.90;2.90;;;19.60;91.00;;;;;;5089283;28;20035;-78
2023/09/29 05:55:13;;;;;;;4.15;2.80;;;19.60;91.10;;;;;;5090360;28;20035;-79
2023/09/29 05:57:39;;;;;;;4.07;2.72;;;19.60;91.10;;;;;;5076208;28;20024;-82
2023/09/29 09:17:21;;;;;;;4.53;2.63;;;20.30;90.10;;;;;;4991310;28;20062;-86
2023/09/29 11:22:17;;;;;;;3.08;2.00;;;20.30;90.30;;;;;;5226326;22;20769;-80
2023/09/29 11:24:44;;;;;;;3.50;2.10;;;20.20;90.40;;;;;;4986716;28;20049;-81
2023/09/29 11:27:11;;;;;;;2.92;1.85;;;20.20;90.40;;;;;;4975867;28;20011;-81
2023/09/29 11:29:37;;;;;;;2.85;1.83;;;20.20;90.40;;;;;;4975525;28;20022;-81
2023/09/29 11:32:04;;;;;;;2.60;1.83;;;20.20;90.40;;;;;;4975562;28;20542;-81
2023/09/29 11:34:29;;;;;;;2.90;1.70;;;20.20;90.40;;;;;;4975946;28;20116;-81
2023/09/29 11:36:55;;;;;;;3.00;2.00;;;20.20;90.50;;;;;;4975933;28;20467;-81
2023/09/29 11:39:22;;;;;;;2.95;2.00;;;20.20;90.50;;;;;;4975615;28;20069;-81
2023/09/29 11:41:48;;;;;;;3.00;1.83;;;20.20;90.50;;;;;;4975630;28;20118;-81
2023/09/29 11:44:16;;;;;;;2.75;1.90;;;20.20;90.50;;;;;;4977249;28;20090;-81
2023/09/29 11:46:41;;;;;;;2.72;1.90;;;20.20;90.50;;;;;;4982257;28;20097;-85
2023/09/29 11:49:10;;;;;;;3.20;1.73;;;20.20;90.50;;;;;;4988974;28;20397;-85
2023/09/29 11:51:36;;;;;;;2.72;1.80;;;20.20;90.50;;;;;;4990719;28;20015;-84
2023/09/29 11:54:02;;;;;;;3.17;1.80;;;20.20;90.50;;;;;;4993794;28;20022;-85
2023/09/29 11:56:28;;;;;;;3.25;1.85;;;20.20;90.50;;;;;;4994652;28;20459;-86
2023/09/29 11:58:56;;;;;;;2.97;1.83;;;20.20;90.40;;;;;;4995663;28;20034;-85
2023/09/29 12:01:22;;;;;;;4.55;2.15;;;20.30;90.50;;;;;;4995670;28;20708;-86
2023/09/29 12:03:47;;;;;;;3.42;1.90;;;20.20;90.40;;;;;;4994560;28;20022;-85
2023/09/29 12:06:13;;;;;;;2.97;1.73;;;20.20;90.40;;;;;;4994420;28;20018;-86
2023/09/29 12:08:39;;;;;;;2.72;1.88;;;20.20;90.50;;;;;;4994598;28;20093;-86
2023/09/29 12:11:05;;;;;;;2.85;1.92;;;20.10;90.50;;;;;;4993363;28;20023;-86
2023/09/29 12:13:33;;;;;;;3.22;1.90;;;20.20;90.50;;;;;;4988957;28;20092;-86
2023/09/29 12:15:59;;;;;;;2.53;1.80;;;20.20;90.50;;;;;;4985256;28;20026;-86
2023/09/29 12:18:26;;;;;;;2.92;1.92;;;20.20;90.60;;;;;;4994316;28;20356;-85
2023/09/29 12:20:53;;;;;;;2.42;1.70;;;20.10;90.60;;;;;;4994651;28;20049;-82
2023/09/29 12:23:18;;;;;;;3.20;2.03;;;20.10;90.60;;;;;;4994038;28;20068;-81
2023/09/29 12:25:44;;;;;;;2.38;1.77;;;20.10;90.60;;;;;;4995651;28;20414;-81
2023/09/29 12:28:10;;;;;;;2.92;1.80;;;20.10;90.70;;;;;;4994199;28;20038;-81
2023/09/29 12:30:35;;;;;;;2.80;1.77;;;20.10;90.70;;;;;;4994018;28;20074;-82
2023/09/29 12:33:01;;;;;;;2.85;1.80;;;20.10;90.70;;;;;;4994653;28;20117;-81
2023/09/29 12:35:27;;;;;;;2.55;1.80;;;20.10;90.60;;;;;;4994191;28;20022;-82
2023/09/29 12:37:53;;;;;;;3.00;1.73;;;20.10;90.60;;;;;;4994026;28;20034;-81
2023/09/29 12:40:18;;;;;;;2.75;1.70;;;20.20;90.60;;;;;;4995045;28;20026;-81
2023/09/29 12:42:49;;;;;;;2.30;1.60;;;20.10;90.60;;;;;;4993896;28;20410;-81
2023/09/29 12:45:18;;;;;;;3.25;2.05;;;20.20;90.50;;;;;;4994020;28;20030;-82
2023/09/29 12:47:45;;;;;;;2.72;1.90;;;20.20;90.50;;;;;;4994088;28;20517;-81
2023/09/29 12:50:11;;;;;;;3.78;1.90;;;20.20;90.50;;;;;;4993761;28;20026;-81
2023/09/29 12:52:37;;;;;;;2.30;1.55;;;20.30;90.40;;;;;;4994164;28;20789;-81
2023/09/29 12:55:03;;;;;;;2.67;1.73;;;20.30;90.30;;;;;;4988722;28;20026;-82
2023/09/29 12:57:28;;;;;;;2.72;1.63;;;20.30;90.30;;;;;;4976484;28;20030;-81
2023/09/29 12:59:55;;;;;;;2.40;1.65;;;20.40;90.20;;;;;;4974090;28;20034;-81
2023/09/29 13:02:20;;;;;;;3.08;1.63;;;20.40;90.10;;;;;;4989866;28;20109;-82
2023/09/29 13:04:46;;;;;;;2.72;1.67;;;20.40;90.10;;;;;;4994611;28;20050;-81
2023/09/29 13:07:13;;;;;;;3.53;1.75;;;20.50;90.10;;;;;;4997111;28;20053;-82
2023/09/29 13:09:39;;;;;;;3.38;1.75;;;20.40;90.10;;;;;;4997718;28;20025;-84
2023/09/29 13:12:04;;;;;;;2.92;1.90;;;20.40;90.10;;;;;;5003202;28;20058;-82
2023/09/29 13:14:31;;;;;;;2.42;1.63;;;20.40;90.10;;;;;;5003086;28;20053;-82
2023/09/29 13:16:57;;;;;;;2.75;1.70;;;20.40;90.10;;;;;;5003484;28;20037;-84
2023/09/29 13:19:23;;;;;;;2.75;1.80;;;20.40;90.10;;;;;;5002690;28;20030;-82
2023/09/29 13:21:48;;;;;;;2.40;1.58;;;20.40;90.20;;;;;;5002535;28;20027;-82
2023/09/29 13:24:14;;;;;;;3.92;1.92;;;20.50;90.20;;;;;;5002610;28;20034;-82
2023/09/29 13:26:41;;;;;;;2.03;1.60;;;20.40;90.20;;;;;;5004282;28;20010;-82
2023/09/29 13:29:08;;;;;;;2.58;1.70;;;20.40;90.20;;;;;;5003405;28;20100;-83
2023/09/29 13:31:33;;;;;;;2.95;1.83;;;20.40;90.20;;;;;;5003072;28;20066;-84
2023/09/29 13:33:59;;;;;;;3.38;1.80;;;20.40;90.20;;;;;;5002460;28;20022;-83
2023/09/29 13:36:25;;;;;;;3.03;1.77;;;20.40;90.20;;;;;;5002021;28;20018;-81
2023/09/29 13:38:50;;;;;;;2.63;1.70;;;20.40;90.20;;;;;;4994121;28;20026;-81
2023/09/29 13:41:16;;;;;;;2.35;1.70;;;20.40;90.20;;;;;;4992885;28;20383;-81
2023/09/29 13:43:43;;;;;;;2.95;1.85;;;20.40;90.20;;;;;;4993106;28;20370;-81
2023/09/29 13:46:08;;;;;;;2.90;1.70;;;20.40;90.30;;;;;;4992922;28;20058;-81
2023/09/29 13:48:35;;;;;;;3.33;1.70;;;20.40;90.30;;;;;;4993914;28;20458;-80
2023/09/29 13:51:06;;;;;;;2.88;1.60;;;20.40;90.20;;;;;;4992770;28;20030;-81
2023/09/29 13:53:32;;;;;;;2.60;1.80;;;20.40;90.20;;;;;;4992834;28;20061;-81
2023/09/29 13:55:58;;;;;;;2.85;1.80;;;20.40;90.20;;;;;;4994098;28;20026;-81
2023/09/29 13:58:24;;;;;;;3.10;1.80;;;20.40;90.20;;;;;;4992619;28;20489;-81
2023/09/29 14:00:51;;;;;;;3.20;1.80;;;20.40;90.20;;;;;;4992452;28;20072;-81
2023/09/29 14:03:17;;;;;;;2.85;1.70;;;20.40;90.20;;;;;;4992790;28;20018;-81
2023/09/29 14:05:44;;;;;;;2.85;1.77;;;20.40;90.20;;;;;;4993267;28;20069;-81
2023/09/29 14:08:10;;;;;;;2.55;1.55;;;20.40;90.50;;;;;;4992736;28;20025;-80
2023/09/29 14:10:36;;;;;;;3.67;1.85;;;20.40;90.30;;;;;;4992406;28;20022;-81
2023/09/29 14:13:02;;;;;;;8.73;2.55;;;20.30;90.30;;;;;;4993803;28;20026;-80
2023/09/29 14:15:28;;;;;;;12.60;3.08;;;20.30;90.70;;;;;;4992360;28;20018;-80
2023/09/29 14:17:53;;;;;;;18.63;3.60;;;20.40;90.70;;;;;;4993896;28;20026;-80
2023/09/29 14:20:19;;;;;;;19.48;3.78;;;20.40;90.70;;;;;;4992082;28;20057;-80
2023/09/29 14:22:44;;;;;;;22.20;4.32;;;20.30;90.70;;;;;;4993634;28;20063;-80
2023/09/29 14:25:10;;;;;;;27.33;4.80;;;20.30;90.80;;;;;;4993977;28;20029;-82
2023/09/29 14:27:36;;;;;;;20.33;4.60;;;20.30;90.90;;;;;;4992539;28;20019;-82
2023/09/29 14:30:06;;;;;;;20.77;4.97;;;20.30;91.00;;;;;;4992271;28;20049;-81
2023/09/29 14:32:31;;;;;;;27.58;4.75;;;20.20;91.00;;;;;;4994048;28;20466;-82
2023/09/29 14:34:57;;;;;;;25.67;4.97;;;20.20;91.00;;;;;;4992452;28;20030;-81
2023/09/29 14:37:22;;;;;;;21.67;5.03;;;20.20;91.00;;;;;;4997250;28;20037;-81
2023/09/29 14:39:48;;;;;;;26.02;4.40;;;20.30;91.00;;;;;;4997253;28;20467;-82
2023/09/29 14:42:13;;;;;;;25.77;4.75;;;20.20;91.00;;;;;;4997348;28;20054;-80
2023/09/29 14:44:39;;;;;;;16.70;3.97;;;20.20;91.00;;;;;;4996399;28;20109;-80
2023/09/29 14:47:05;;;;;;;20.95;5.15;;;20.30;91.00;;;;;;4996601;28;20044;-80
2023/09/29 14:49:30;;;;;;;24.50;4.63;;;20.30;91.00;;;;;;4997480;28;20080;-82
2023/09/29 14:51:56;;;;;;;19.17;3.90;;;20.30;90.90;;;;;;4997856;28;20018;-82
2023/09/29 14:54:21;;;;;;;15.38;4.10;;;20.30;90.80;;;;;;4995857;28;20018;-87
2023/09/29 14:56:47;;;;;;;17.92;3.80;;;20.30;90.80;;;;;;4997955;28;20402;-81
2023/09/29 14:59:18;;;;;;;15.25;3.55;;;20.30;90.80;;;;;;4995546;28;20026;-85
2023/09/29 15:01:44;;;;;;;17.03;4.57;;;20.30;90.80;;;;;;4996067;28;20464;-86
2023/09/29 15:04:09;;;;;;;14.38;3.45;;;20.30;90.80;;;;;;4995819;28;20340;-87
2023/09/29 15:06:35;;;;;;;16.33;3.55;;;20.30;90.80;;;;;;4995733;28;20056;-85
2023/09/29 15:09:00;;;;;;;15.63;4.25;;;20.30;90.90;;;;;;4995042;28;20022;-86
2023/09/29 15:11:26;;;;;;;21.90;4.53;;;20.20;90.90;;;;;;4995339;28;20165;-84
2023/09/29 15:13:51;;;;;;;13.40;3.90;;;20.20;91.00;;;;;;4995672;28;20427;-79
2023/09/29 15:16:17;;;;;;;16.52;4.03;;;20.20;91.00;;;;;;4997008;28;20044;-83
2023/09/29 15:18:50;;;;;;;16.13;3.90;;;20.20;91.00;;;;;;4995358;28;20028;-83
2023/09/29 15:21:16;;;;;;;14.23;3.80;;;20.10;91.00;;;;;;4995726;28;20022;-82
2023/09/29 15:23:42;;;;;;;15.80;4.30;;;20.10;91.00;;;;;;5028483;28;20027;-85
2023/09/29 15:26:07;;;;;;;12.75;3.20;;;20.10;91.00;;;;;;5028520;28;20053;-84
2023/09/29 15:28:33;;;;;;;13.32;3.90;;;20.10;91.00;;;;;;4996550;28;20038;-83
2023/09/29 15:30:59;;;;;;;13.15;3.90;;;20.10;91.10;;;;;;4995926;28;20026;-84
2023/09/29 15:33:25;;;;;;;13.73;3.67;;;20.10;91.10;;;;;;4995466;28;20041;-84
2023/09/29 15:35:54;;;;;;;22.23;4.35;;;20.10;91.20;;;;;;4995346;28;20109;-84
2023/09/29 15:38:24;;;;;;;69.32;7.78;;;20.10;91.10;;;;;;4997047;28;20053;-85
2023/09/29 15:40:51;;;;;;;58.53;7.90;;;20.10;91.40;;;;;;4995441;28;20026;-85
2023/09/29 15:43:17;;;;;;;41.45;5.82;;;20.10;91.50;;;;;;4995349;28;20019;-83
2023/09/29 15:45:42;;;;;;;42.05;6.30;;;20.10;91.40;;;;;;4994954;28;20018;-79
2023/09/29 15:48:08;;;;;;;44.65;6.85;;;20.10;91.40;;;;;;4994371;28;20014;-82
2023/09/29 15:50:34;;;;;;;40.15;6.82;;;20.10;91.40;;;;;;4996025;28;20098;-81
2023/09/29 15:53:00;;;;;;;45.75;6.82;;;20.10;91.50;;;;;;4996182;28;20045;-81
2023/09/29 15:55:26;;;;;;;55.80;6.95;;;20.10;91.50;;;;;;4994968;28;20470;-82
2023/09/29 15:57:52;;;;;;;36.10;5.72;;;20.10;91.50;;;;;;4996872;28;20493;-81
2023/09/29 16:00:18;;;;;;;36.20;6.20;;;20.00;91.50;;;;;;4994833;28;20034;-83
2023/09/29 16:02:43;;;;;;;48.33;7.07;;;20.00;91.50;;;;;;4994635;28;20026;-82
2023/09/29 16:05:10;;;;;;;33.03;5.53;;;20.00;91.50;;;;;;4995662;28;20508;-81
2023/09/29 16:07:37;;;;;;;29.45;5.47;;;20.00;91.60;;;;;;4994663;28;20027;-81
2023/09/29 16:10:03;;;;;;;28.23;5.07;;;20.00;91.60;;;;;;4994010;28;20117;-81
2023/09/29 16:12:28;;;;;;;33.60;5.40;;;20.00;91.60;;;;;;4994373;28;20057;-81
2023/09/29 16:14:54;;;;;;;28.02;5.97;;;20.00;91.60;;;;;;4994308;28;20026;-82
2023/09/29 16:17:20;;;;;;;27.98;5.05;;;20.00;91.60;;;;;;4995714;28;20025;-82
2023/09/29 16:19:45;;;;;;;27.95;5.15;;;20.00;91.60;;;;;;4993990;28;20044;-81
2023/09/29 16:22:11;;;;;;;27.83;5.30;;;20.00;91.60;;;;;;4993323;28;20026;-82
2023/09/29 16:24:42;;;;;;;29.52;4.93;;;20.00;91.60;;;;;;4978295;28;20042;-81
2023/09/29 16:27:08;;;;;;;26.13;4.88;;;20.00;91.60;;;;;;4974670;28;20073;-81
2023/09/29 16:29:37;;;;;;;30.15;5.60;;;19.90;91.60;;;;;;4974551;28;20035;-82
2023/09/29 16:32:06;;;;;;;22.90;5.18;;;19.90;91.60;;;;;;4974725;28;20027;-82
2023/09/29 16:34:31;;;;;;;25.75;4.70;;;19.90;91.60;;;;;;4975788;28;20014;-82
2023/09/29 16:36:57;;;;;;;21.38;4.45;;;19.90;91.60;;;;;;4975822;28;20029;-82
2023/09/29 16:39:22;;;;;;;24.58;5.10;;;20.00;91.70;;;;;;4975508;28;20027;-82
2023/09/29 16:41:48;;;;;;;22.15;4.78;;;20.00;91.60;;;;;;4974511;28;20054;-81
2023/09/29 16:44:13;;;;;;;20.65;4.78;;;20.00;91.60;;;;;;4975718;28;20025;-81
2023/09/29 16:46:39;;;;;;;26.77;4.90;;;20.00;91.50;;;;;;4974620;28;20371;-81
2023/09/29 16:49:05;;;;;;;25.17;4.93;;;20.00;91.50;;;;;;4974305;28;20019;-81
2023/09/29 16:51:32;;;;;;;24.30;5.25;;;20.00;91.50;;;;;;4974786;28;20026;-82
2023/09/29 16:54:00;;;;;;;22.48;4.97;;;20.00;91.50;;;;;;4974486;28;20026;-81
2023/09/29 16:56:28;;;;;;;21.48;4.68;;;20.00;91.50;;;;;;4974536;28;20383;-82
2023/09/29 16:58:54;;;;;;;22.08;4.22;;;20.00;91.50;;;;;;4973142;28;20483;-82
2023/09/29 17:01:20;;;;;;;21.65;4.65;;;20.00;91.50;;;;;;4973739;28;20062;-81
2023/09/29 17:03:45;;;;;;;19.48;4.65;;;20.00;91.60;;;;;;4974289;28;20045;-82
2023/09/29 17:06:11;;;;;;;22.23;4.95;;;20.00;91.60;;;;;;4975355;28;20055;-82
2023/09/29 17:08:37;;;;;;;18.33;3.78;;;19.90;91.60;;;;;;4974995;28;20485;-80
2023/09/29 17:11:17;;;;;;;17.40;4.35;;;19.90;91.60;;;;;;4974146;28;20023;-80
2023/09/29 17:13:43;;;;;;;;;;;19.90;91.60;;;;;;4975581;28;20092;-82
2023/09/29 17:16:13;;;;;;;18.35;4.57;;;19.90;91.60;;;;;;4974132;28;19906;-82
2023/09/29 17:18:39;;;;;;;16.20;4.38;;;19.90;91.60;;;;;;4974857;28;20026;-81
2023/09/29 17:21:12;;;;;;;16.52;4.22;;;19.90;91.90;;;;;;4980298;28;20493;-81
2023/09/29 17:23:37;;;;;;;15.07;4.90;;;19.90;91.70;;;;;;4993096;28;20479;-84
2023/09/29 17:26:03;;;;;;;15.93;4.00;;;19.90;91.60;;;;;;4994085;28;20037;-83
2023/09/29 17:28:28;;;;;;;19.35;4.05;;;19.90;91.90;;;;;;4992488;28;20014;-81
2023/09/29 17:30:54;;;;;;;14.93;3.60;;;19.90;91.60;;;;;;4994499;28;20036;-81
2023/09/29 17:33:19;;;;;;;19.10;4.47;;;19.90;91.70;;;;;;4995393;28;20031;-80
2023/09/29 17:35:45;;;;;;;14.05;3.40;;;19.90;91.70;;;;;;4994690;28;20040;-80
2023/09/29 17:38:10;;;;;;;16.25;3.42;;;19.90;91.70;;;;;;4994453;28;20089;-81
2023/09/29 17:40:36;;;;;;;11.70;3.50;;;19.90;91.70;;;;;;4993216;28;20073;-81
2023/09/29 17:43:02;;;;;;;12.20;3.10;;;19.90;91.70;;;;;;4993586;28;20028;-79
2023/09/29 17:45:28;;;;;;;15.02;3.88;;;19.80;91.60;;;;;;4994542;28;20019;-80
2023/09/29 17:47:54;;;;;;;17.45;4.18;;;19.90;91.60;;;;;;4993886;28;20517;-80
2023/09/29 17:50:20;;;;;;;12.18;3.20;;;20.00;91.70;;;;;;4994160;28;20041;-80
2023/09/29 17:52:45;;;;;;;18.13;4.00;;;19.90;91.60;;;;;;4996575;28;20022;-80
2023/09/29 17:55:11;;;;;;;15.30;3.88;;;19.90;91.60;;;;;;4994653;28;20034;-80
2023/09/29 17:57:36;;;;;;;18.83;4.57;;;19.90;91.60;;;;;;4992464;28;20487;-81
2023/09/29 18:00:06;;;;;;;16.83;3.90;;;19.90;91.60;;;;;;4992197;28;20026;-82